createdAt,value
2022-08-08T00:00:58.023Z,24
2022-08-08T00:01:58.000Z,24
2022-08-08T00:02:58.029Z,24
2022-08-08T00:03:58.005Z,24
2022-08-08T00:04:57.970Z,24
2022-08-08T00:05:58.000Z,24
2022-08-08T00:06:57.967Z,24
2022-08-08T00:07:57.953Z,24
2022-08-08T00:08:57.932Z,24
2022-08-08T00:09:57.929Z,24
2022-08-08T00:10:57.928Z,24
2022-08-08T00:11:57.897Z,24
2022-08-08T00:12:57.897Z,24
2022-08-08T00:13:57.890Z,24
2022-08-08T00:14:57.886Z,24
2022-08-08T00:15:57.862Z,24
2022-08-08T00:16:57.849Z,24
2022-08-08T00:17:57.835Z,24
2022-08-08T00:18:57.828Z,24
2022-08-08T00:19:57.815Z,24
2022-08-08T00:20:57.809Z,24
2022-08-08T00:21:57.807Z,24
2022-08-08T00:22:57.786Z,24
2022-08-08T00:23:57.775Z,24
2022-08-08T00:24:57.768Z,24
2022-08-08T00:25:57.762Z,24
2022-08-08T00:26:57.749Z,24
2022-08-08T00:27:57.728Z,24
2022-08-08T00:28:57.722Z,24
2022-08-08T00:29:57.711Z,24
2022-08-08T00:30:57.701Z,24
2022-08-08T00:31:57.690Z,24
2022-08-08T00:32:57.684Z,24
2022-08-08T00:33:57.670Z,24
2022-08-08T00:34:57.657Z,24
2022-08-08T00:35:57.644Z,24
2022-08-08T00:36:57.641Z,24
2022-08-08T00:37:57.629Z,24
2022-08-08T00:38:57.619Z,24
2022-08-08T00:39:57.614Z,24
2022-08-08T00:40:57.611Z,24
2022-08-08T00:41:57.586Z,24
2022-08-08T00:42:57.586Z,24
2022-08-08T00:43:57.574Z,24
2022-08-08T00:44:57.562Z,24
2022-08-08T00:45:57.559Z,24
2022-08-08T00:46:57.537Z,24
2022-08-08T00:47:57.530Z,24
2022-08-08T00:48:57.510Z,24
2022-08-08T00:49:57.501Z,24
2022-08-08T00:50:57.497Z,24
2022-08-08T00:51:57.488Z,24
2022-08-08T00:52:57.480Z,24
2022-08-08T00:53:57.461Z,24
2022-08-08T00:54:57.448Z,24
2022-08-08T00:55:57.439Z,24
2022-08-08T00:56:57.423Z,24
2022-08-08T00:57:57.416Z,24
2022-08-08T00:58:57.403Z,24
2022-08-08T00:59:57.394Z,24
2022-08-08T01:00:57.387Z,24
2022-08-08T01:01:57.375Z,24
2022-08-08T01:02:57.365Z,24
2022-08-08T01:03:57.357Z,24
2022-08-08T01:04:57.342Z,24
2022-08-08T01:05:57.331Z,24
2022-08-08T01:06:57.322Z,24
2022-08-08T01:07:57.329Z,24
2022-08-08T01:08:57.306Z,24
2022-08-08T01:09:57.289Z,24
2022-08-08T01:10:57.287Z,24
2022-08-08T01:11:57.276Z,24
2022-08-08T01:12:57.255Z,24
2022-08-08T01:13:57.270Z,24
2022-08-08T01:14:57.248Z,24
2022-08-08T01:15:57.226Z,24
2022-08-08T01:16:57.211Z,24
2022-08-08T01:17:57.208Z,24
2022-08-08T01:18:57.201Z,24
2022-08-08T01:19:57.199Z,24
2022-08-08T01:20:57.176Z,24
2022-08-08T01:21:57.159Z,24
2022-08-08T01:22:57.169Z,24
2022-08-08T01:23:57.139Z,24
2022-08-08T01:24:57.128Z,24
2022-08-08T01:25:57.131Z,24
2022-08-08T01:26:57.115Z,24
2022-08-08T01:27:57.124Z,24
2022-08-08T01:28:57.090Z,24
2022-08-08T01:29:57.083Z,24
2022-08-08T01:30:57.088Z,24
2022-08-08T01:31:57.057Z,24
2022-08-08T01:32:57.049Z,24
2022-08-08T01:33:57.041Z,24
2022-08-08T01:34:57.023Z,24
2022-08-08T01:35:57.021Z,24
2022-08-08T01:36:57.017Z,24
2022-08-08T01:37:56.998Z,24
2022-08-08T01:38:56.998Z,24
2022-08-08T01:39:56.978Z,24
2022-08-08T01:40:56.964Z,24
2022-08-08T01:41:56.955Z,24
2022-08-08T01:42:56.950Z,24
2022-08-08T01:43:56.930Z,24
2022-08-08T01:44:56.923Z,24
2022-08-08T01:45:56.925Z,24
2022-08-08T01:46:56.915Z,24
2022-08-08T01:47:56.895Z,24
2022-08-08T01:48:56.906Z,24
2022-08-08T01:49:56.870Z,24
2022-08-08T01:50:56.858Z,24
2022-08-08T01:51:56.842Z,24
2022-08-08T01:52:56.836Z,24
2022-08-08T01:53:56.825Z,24
2022-08-08T01:54:56.815Z,24
2022-08-08T01:55:56.805Z,24
2022-08-08T01:56:56.794Z,24
2022-08-08T01:57:56.788Z,24
2022-08-08T01:58:56.774Z,24
2022-08-08T01:59:56.761Z,24
2022-08-08T02:00:56.751Z,24
2022-08-08T02:01:56.741Z,24
2022-08-08T02:02:56.727Z,24
2022-08-08T02:03:56.722Z,24
2022-08-08T02:04:56.706Z,24
2022-08-08T02:05:56.705Z,24
2022-08-08T02:06:56.688Z,24
2022-08-08T02:07:56.686Z,24
2022-08-08T02:08:56.685Z,24
2022-08-08T02:09:56.654Z,24
2022-08-08T02:10:56.643Z,24
2022-08-08T02:11:56.644Z,24
2022-08-08T02:12:56.624Z,24
2022-08-08T02:13:56.608Z,24
2022-08-08T02:14:56.605Z,24
2022-08-08T02:15:56.588Z,24
2022-08-08T02:16:56.594Z,24
2022-08-08T02:17:56.568Z,24
2022-08-08T02:18:56.570Z,24
2022-08-08T02:19:56.546Z,24
2022-08-08T02:20:56.537Z,24
2022-08-08T02:21:56.526Z,24
2022-08-08T02:22:56.533Z,24
2022-08-08T02:23:56.517Z,24
2022-08-08T02:24:56.498Z,24
2022-08-08T02:25:56.487Z,24
2022-08-08T02:26:56.488Z,24
2022-08-08T02:27:56.460Z,28
2022-08-08T02:28:56.458Z,24
2022-08-08T02:29:56.478Z,24
2022-08-08T02:30:56.464Z,24
2022-08-08T02:31:56.417Z,24
2022-08-08T02:32:56.402Z,24
2022-08-08T02:33:56.407Z,24
2022-08-08T02:34:56.386Z,24
2022-08-08T02:35:56.371Z,24
2022-08-08T02:36:56.367Z,24
2022-08-08T02:37:56.366Z,24
2022-08-08T02:38:56.338Z,24
2022-08-08T02:39:56.334Z,24
2022-08-08T02:40:56.335Z,24
2022-08-08T02:41:56.305Z,24
2022-08-08T02:42:56.294Z,24
2022-08-08T02:43:56.287Z,24
2022-08-08T02:44:56.285Z,24
2022-08-08T02:45:56.287Z,24
2022-08-08T02:46:56.247Z,24
2022-08-08T02:47:56.250Z,24
2022-08-08T02:48:56.250Z,24
2022-08-08T02:49:56.239Z,24
2022-08-08T02:50:56.209Z,24
2022-08-08T02:51:56.210Z,24
2022-08-08T02:52:56.195Z,24
2022-08-08T02:53:56.196Z,24
2022-08-08T02:54:56.168Z,24
2022-08-08T02:55:56.152Z,24
2022-08-08T02:56:56.161Z,24
2022-08-08T02:57:56.141Z,24
2022-08-08T02:58:56.123Z,24
2022-08-08T02:59:56.116Z,24
2022-08-08T03:00:56.098Z,24
2022-08-08T03:01:56.096Z,24
2022-08-08T03:02:56.084Z,24
2022-08-08T03:03:56.069Z,24
2022-08-08T03:04:56.058Z,24
2022-08-08T03:05:56.044Z,24
2022-08-08T03:06:56.035Z,24
2022-08-08T03:07:56.023Z,24
2022-08-08T03:08:56.016Z,24
2022-08-08T03:09:55.998Z,24
2022-08-08T03:10:55.995Z,24
2022-08-08T03:11:56.000Z,24
2022-08-08T03:12:55.979Z,24
2022-08-08T03:13:55.962Z,24
2022-08-08T03:14:55.973Z,24
2022-08-08T03:15:55.963Z,24
2022-08-08T03:16:55.930Z,24
2022-08-08T03:17:55.925Z,28
2022-08-08T03:18:55.906Z,28
2022-08-08T03:19:55.897Z,28
2022-08-08T03:20:55.887Z,28
2022-08-08T03:21:55.883Z,28
2022-08-08T03:22:55.882Z,24
2022-08-08T03:23:55.855Z,24
2022-08-08T03:24:55.857Z,28
2022-08-08T03:25:55.836Z,28
2022-08-08T03:26:55.824Z,28
2022-08-08T03:27:55.812Z,28
2022-08-08T03:28:55.806Z,28
2022-08-08T03:29:55.805Z,32
2022-08-08T03:30:55.788Z,20
2022-08-08T03:31:55.779Z,20
2022-08-08T03:32:55.764Z,24
2022-08-08T03:33:55.765Z,24
2022-08-08T03:34:55.757Z,24
2022-08-08T03:35:55.733Z,24
2022-08-08T03:36:55.723Z,28
2022-08-08T03:37:55.717Z,32
2022-08-08T03:38:55.701Z,36
2022-08-08T03:39:55.694Z,36
2022-08-08T03:40:55.686Z,40
2022-08-08T03:41:55.672Z,40
2022-08-08T03:42:55.668Z,44
2022-08-08T03:43:55.649Z,48
2022-08-08T03:44:55.645Z,52
2022-08-08T03:45:55.635Z,56
2022-08-08T03:46:55.632Z,64
2022-08-08T03:47:55.607Z,72
2022-08-08T03:48:55.611Z,76
2022-08-08T03:49:55.607Z,84
2022-08-08T03:50:55.578Z,88
2022-08-08T03:51:55.572Z,100
2022-08-08T03:52:55.563Z,108
2022-08-08T03:53:55.554Z,116
2022-08-08T03:54:55.555Z,128
2022-08-08T03:55:55.527Z,136
2022-08-08T03:56:55.515Z,148
2022-08-08T03:57:55.502Z,160
2022-08-08T03:58:55.491Z,156
2022-08-08T03:59:55.487Z,172
2022-08-08T04:00:55.483Z,184
2022-08-08T04:01:55.469Z,200
2022-08-08T04:02:55.454Z,208
2022-08-08T04:03:55.443Z,224
2022-08-08T04:04:55.444Z,240
2022-08-08T04:05:55.419Z,256
2022-08-08T04:06:55.409Z,268
2022-08-08T04:07:55.401Z,288
2022-08-08T04:08:55.417Z,304
2022-08-08T04:09:55.394Z,324
2022-08-08T04:10:55.371Z,340
2022-08-08T04:11:55.363Z,360
2022-08-08T04:12:55.358Z,380
2022-08-08T04:13:55.335Z,396
2022-08-08T04:14:55.326Z,416
2022-08-08T04:15:55.327Z,436
2022-08-08T04:16:55.300Z,456
2022-08-08T04:17:55.284Z,476
2022-08-08T04:18:55.289Z,492
2022-08-08T04:19:55.290Z,516
2022-08-08T04:20:55.256Z,536
2022-08-08T04:21:55.245Z,556
2022-08-08T04:22:55.240Z,576
2022-08-08T04:23:55.224Z,596
2022-08-08T04:24:55.227Z,620
2022-08-08T04:25:55.197Z,636
2022-08-08T04:26:55.196Z,660
2022-08-08T04:27:55.178Z,680
2022-08-08T04:28:55.175Z,704
2022-08-08T04:29:55.168Z,724
2022-08-08T04:30:55.144Z,748
2022-08-08T04:31:55.134Z,768
2022-08-08T04:32:55.124Z,788
2022-08-08T04:33:55.126Z,800
2022-08-08T04:34:55.102Z,820
2022-08-08T04:35:55.095Z,840
2022-08-08T04:36:55.098Z,860
2022-08-08T04:37:55.079Z,880
2022-08-08T04:38:55.062Z,896
2022-08-08T04:39:55.052Z,916
2022-08-08T04:40:55.046Z,940
2022-08-08T04:41:55.025Z,952
2022-08-08T04:42:55.030Z,972
2022-08-08T04:43:55.010Z,992
2022-08-08T04:44:55.009Z,1008
2022-08-08T04:45:54.996Z,1028
2022-08-08T04:46:54.977Z,1044
2022-08-08T04:47:54.970Z,1064
2022-08-08T04:48:54.956Z,1076
2022-08-08T04:49:54.947Z,1096
2022-08-08T04:50:54.934Z,1112
2022-08-08T04:51:54.928Z,1132
2022-08-08T04:52:54.932Z,1152
2022-08-08T04:53:54.919Z,1164
2022-08-08T04:54:54.894Z,1184
2022-08-08T04:55:54.884Z,1204
2022-08-08T04:56:54.887Z,1220
2022-08-08T04:57:54.870Z,1236
2022-08-08T04:58:54.876Z,1260
2022-08-08T04:59:54.836Z,1276
2022-08-08T05:00:54.827Z,1296
2022-08-08T05:01:54.824Z,1312
2022-08-08T05:02:54.810Z,1332
2022-08-08T05:03:54.801Z,1348
2022-08-08T05:04:54.803Z,1368
2022-08-08T05:05:54.776Z,1380
2022-08-08T05:06:54.787Z,1404
2022-08-08T05:07:54.758Z,1420
2022-08-08T05:08:54.745Z,1436
2022-08-08T05:09:54.741Z,1456
2022-08-08T05:10:54.729Z,1472
2022-08-08T05:11:54.732Z,1492
2022-08-08T05:12:54.713Z,1520
2022-08-08T05:13:54.704Z,1540
2022-08-08T05:14:54.688Z,1564
2022-08-08T05:15:54.708Z,1592
2022-08-08T05:16:54.685Z,1624
2022-08-08T05:17:54.655Z,1648
2022-08-08T05:18:54.678Z,1680
2022-08-08T05:19:54.636Z,1704
2022-08-08T05:20:54.619Z,1736
2022-08-08T05:21:54.619Z,1764
2022-08-08T05:22:54.602Z,1796
2022-08-08T05:23:54.610Z,1832
2022-08-08T05:24:54.595Z,1872
2022-08-08T05:25:54.572Z,1908
2022-08-08T05:26:54.570Z,1952
2022-08-08T05:27:54.559Z,1988
2022-08-08T05:28:54.550Z,2032
2022-08-08T05:29:54.538Z,2068
2022-08-08T05:30:54.537Z,2124
2022-08-08T05:31:54.519Z,2168
2022-08-08T05:32:54.504Z,2216
2022-08-08T05:33:54.491Z,2272
2022-08-08T05:34:54.486Z,2324
2022-08-08T05:35:54.478Z,2388
2022-08-08T05:36:54.466Z,2432
2022-08-08T05:37:54.453Z,2468
2022-08-08T05:38:54.437Z,2488
2022-08-08T05:39:54.437Z,2532
2022-08-08T05:40:54.476Z,2560
2022-08-08T05:41:54.440Z,2588
2022-08-08T05:42:54.401Z,2628
2022-08-08T05:43:54.384Z,2668
2022-08-08T05:44:54.376Z,2704
2022-08-08T05:45:54.375Z,2752
2022-08-08T05:46:54.386Z,2820
2022-08-08T05:47:54.344Z,2924
2022-08-08T05:48:54.354Z,3024
2022-08-08T05:49:54.344Z,3116
2022-08-08T05:50:54.314Z,3200
2022-08-08T05:51:54.325Z,3276
2022-08-08T05:52:54.316Z,3348
2022-08-08T05:53:54.326Z,3400
2022-08-08T05:54:54.269Z,3452
2022-08-08T05:55:54.260Z,3516
2022-08-08T05:56:54.251Z,3568
2022-08-08T05:57:54.255Z,3668
2022-08-08T05:58:54.231Z,3728
2022-08-08T05:59:54.220Z,3800
2022-08-08T06:00:54.257Z,3868
2022-08-08T06:01:54.198Z,3920
2022-08-08T06:02:54.187Z,3860
2022-08-08T06:03:54.177Z,4024
2022-08-08T06:04:54.171Z,4056
2022-08-08T06:05:54.179Z,4072
2022-08-08T06:06:54.444Z,4096
2022-08-08T06:07:54.181Z,4112
2022-08-08T06:08:54.129Z,4132
2022-08-08T06:09:54.119Z,4136
2022-08-08T06:10:54.108Z,4156
2022-08-08T06:11:54.092Z,4144
2022-08-08T06:12:54.080Z,4164
2022-08-08T06:13:54.077Z,4172
2022-08-08T06:14:54.063Z,4168
2022-08-08T06:15:54.047Z,4176
2022-08-08T06:16:54.043Z,4076
2022-08-08T06:17:54.028Z,3916
2022-08-08T06:18:54.026Z,4188
2022-08-08T06:19:54.015Z,4184
2022-08-08T06:20:53.997Z,4184
2022-08-08T06:21:53.986Z,4184
2022-08-08T06:22:53.975Z,4160
2022-08-08T06:23:54.040Z,4204
2022-08-08T06:24:53.970Z,4200
2022-08-08T06:25:53.959Z,4196
2022-08-08T06:26:53.952Z,4208
2022-08-08T06:27:53.923Z,4244
2022-08-08T06:28:53.911Z,4256
2022-08-08T06:29:53.920Z,4228
2022-08-08T06:30:53.894Z,4200
2022-08-08T06:31:53.873Z,4188
2022-08-08T06:32:53.865Z,4148
2022-08-08T06:33:53.867Z,4128
2022-08-08T06:34:53.844Z,4132
2022-08-08T06:35:53.839Z,4124
2022-08-08T06:36:53.819Z,4116
2022-08-08T06:37:54.490Z,4104
2022-08-08T06:38:53.801Z,4076
2022-08-08T06:39:53.797Z,3896
2022-08-08T06:40:53.789Z,4060
2022-08-08T06:41:53.766Z,4036
2022-08-08T06:42:53.762Z,4036
2022-08-08T06:43:53.756Z,4032
2022-08-08T06:44:53.757Z,4008
2022-08-08T06:45:53.733Z,4036
2022-08-08T06:46:53.719Z,3844
2022-08-08T06:47:53.723Z,4000
2022-08-08T06:48:53.701Z,4040
2022-08-08T06:49:53.684Z,4008
2022-08-08T06:50:53.678Z,4012
2022-08-08T06:51:53.656Z,4020
2022-08-08T06:52:53.672Z,4028
2022-08-08T06:53:53.640Z,4068
2022-08-08T06:54:53.630Z,4072
2022-08-08T06:55:53.621Z,4984
2022-08-08T06:56:53.615Z,4104
2022-08-08T06:57:53.627Z,4096
2022-08-08T06:58:53.593Z,4092
2022-08-08T06:59:53.587Z,4108
2022-08-08T07:00:53.568Z,4132
2022-08-08T07:01:53.560Z,4260
2022-08-08T07:02:53.560Z,4500
2022-08-08T07:03:53.554Z,4880
2022-08-08T07:04:53.520Z,5572
2022-08-08T07:05:53.517Z,6524
2022-08-08T07:06:53.508Z,6588
2022-08-08T07:07:53.516Z,6720
2022-08-08T07:08:53.479Z,6852
2022-08-08T07:09:53.478Z,6984
2022-08-08T07:10:53.470Z,6952
2022-08-08T07:11:53.451Z,6968
2022-08-08T07:12:53.444Z,7228
2022-08-08T07:13:53.446Z,7412
2022-08-08T07:14:53.424Z,7332
2022-08-08T07:15:53.408Z,7372
2022-08-08T07:16:53.400Z,7452
2022-08-08T07:17:53.395Z,7528
2022-08-08T07:18:53.375Z,7360
2022-08-08T07:19:53.366Z,6940
2022-08-08T07:20:53.355Z,7284
2022-08-08T07:21:53.364Z,7260
2022-08-08T07:22:53.334Z,7408
2022-08-08T07:23:53.324Z,7984
2022-08-08T07:24:53.323Z,8080
2022-08-08T07:25:53.307Z,8228
2022-08-08T07:26:53.289Z,7704
2022-08-08T07:27:53.280Z,7080
2022-08-08T07:28:53.272Z,6972
2022-08-08T07:29:53.259Z,7368
2022-08-08T07:30:53.266Z,7876
2022-08-08T07:31:53.244Z,8372
2022-08-08T07:32:53.244Z,8548
2022-08-08T07:33:53.214Z,7948
2022-08-08T07:34:53.206Z,8624
2022-08-08T07:35:53.209Z,8608
2022-08-08T07:36:53.184Z,8696
2022-08-08T07:37:53.181Z,8740
2022-08-08T07:38:53.171Z,8724
2022-08-08T07:39:53.165Z,8784
2022-08-08T07:40:53.159Z,8880
2022-08-08T07:41:53.150Z,8936
2022-08-08T07:42:53.132Z,9020
2022-08-08T07:43:53.126Z,9056
2022-08-08T07:44:53.118Z,9140
2022-08-08T07:45:53.098Z,9336
2022-08-08T07:46:53.143Z,9120
2022-08-08T07:47:53.996Z,9300
2022-08-08T07:48:53.058Z,9396
2022-08-08T07:49:53.049Z,9436
2022-08-08T07:50:53.036Z,9476
2022-08-08T07:51:53.024Z,9472
2022-08-08T07:52:53.017Z,9532
2022-08-08T07:53:53.006Z,9572
2022-08-08T07:54:53.001Z,9688
2022-08-08T07:55:52.982Z,9696
2022-08-08T07:56:53.032Z,9796
2022-08-08T07:57:52.960Z,9820
2022-08-08T07:58:52.960Z,9896
2022-08-08T07:59:52.958Z,9956
2022-08-08T08:00:52.928Z,10028
2022-08-08T08:01:52.930Z,10112
2022-08-08T08:02:52.948Z,10180
2022-08-08T08:03:52.920Z,10184
2022-08-08T08:04:52.895Z,10256
2022-08-08T08:05:52.928Z,10312
2022-08-08T08:06:52.870Z,10412
2022-08-08T08:07:52.862Z,10396
2022-08-08T08:08:52.843Z,10428
2022-08-08T08:09:52.836Z,10532
2022-08-08T08:10:52.842Z,10572
2022-08-08T08:11:52.816Z,10612
2022-08-08T08:12:52.804Z,10688
2022-08-08T08:13:52.802Z,10704
2022-08-08T08:14:52.810Z,10616
2022-08-08T08:15:52.791Z,10636
2022-08-08T08:16:52.799Z,10888
2022-08-08T08:17:52.750Z,10920
2022-08-08T08:18:52.744Z,11032
2022-08-08T08:19:52.768Z,11000
2022-08-08T08:20:52.723Z,11124
2022-08-08T08:21:52.711Z,11156
2022-08-08T08:22:52.707Z,11236
2022-08-08T08:23:52.688Z,11212
2022-08-08T08:24:52.679Z,11280
2022-08-08T08:25:52.684Z,11340
2022-08-08T08:26:52.655Z,11400
2022-08-08T08:27:52.645Z,11476
2022-08-08T08:28:52.678Z,11516
2022-08-08T08:29:52.686Z,11516
2022-08-08T08:30:52.611Z,11560
2022-08-08T08:31:52.604Z,12044
2022-08-08T08:32:52.620Z,11844
2022-08-08T08:33:52.582Z,11960
2022-08-08T08:34:52.578Z,11808
2022-08-08T08:35:52.570Z,11888
2022-08-08T08:36:52.551Z,11968
2022-08-08T08:37:52.555Z,11944
2022-08-08T08:38:52.526Z,12264
2022-08-08T08:39:52.525Z,12296
2022-08-08T08:40:52.519Z,11844
2022-08-08T08:41:52.498Z,12004
2022-08-08T08:42:52.491Z,11844
2022-08-08T08:43:52.479Z,11956
2022-08-08T08:44:52.477Z,11960
2022-08-08T08:45:52.495Z,12056
2022-08-08T08:46:52.446Z,12052
2022-08-08T08:47:52.431Z,12092
2022-08-08T08:48:52.439Z,12168
2022-08-08T08:49:52.414Z,12168
2022-08-08T08:50:52.432Z,12236
2022-08-08T08:51:52.434Z,12240
2022-08-08T08:52:52.375Z,12328
2022-08-08T08:53:52.371Z,12360
2022-08-08T08:54:52.358Z,12460
2022-08-08T08:55:52.359Z,12556
2022-08-08T08:56:52.338Z,12540
2022-08-08T08:57:52.395Z,12584
2022-08-08T08:58:52.324Z,12640
2022-08-08T08:59:52.306Z,12804
2022-08-08T09:00:52.309Z,12736
2022-08-08T09:01:52.289Z,12820
2022-08-08T09:02:52.308Z,12828
2022-08-08T09:03:52.291Z,12876
2022-08-08T09:04:52.251Z,12996
2022-08-08T09:05:52.245Z,13008
2022-08-08T09:06:52.231Z,12948
2022-08-08T09:07:52.239Z,13064
2022-08-08T09:08:52.257Z,13160
2022-08-08T09:09:52.202Z,13200
2022-08-08T09:10:52.255Z,13216
2022-08-08T09:11:52.176Z,13244
2022-08-08T09:12:52.168Z,13340
2022-08-08T09:13:52.158Z,13424
2022-08-08T09:14:52.155Z,13388
2022-08-08T09:15:52.135Z,13440
2022-08-08T09:16:52.140Z,13516
2022-08-08T09:17:52.136Z,13520
2022-08-08T09:18:52.135Z,13540
2022-08-08T09:19:52.137Z,13580
2022-08-08T09:20:52.092Z,13584
2022-08-08T09:21:52.076Z,13616
2022-08-08T09:22:52.065Z,13632
2022-08-08T09:23:52.056Z,13684
2022-08-08T09:24:52.043Z,13680
2022-08-08T09:25:52.038Z,13704
2022-08-08T09:26:52.026Z,13668
2022-08-08T09:27:52.013Z,13780
2022-08-08T09:28:52.007Z,13884
2022-08-08T09:29:52.045Z,13904
2022-08-08T09:30:51.979Z,14036
2022-08-08T09:31:51.971Z,13848
2022-08-08T09:32:51.968Z,14088
2022-08-08T09:33:51.949Z,14156
2022-08-08T09:34:51.940Z,14304
2022-08-08T09:35:51.932Z,14372
2022-08-08T09:36:51.922Z,14472
2022-08-08T09:37:51.909Z,14492
2022-08-08T09:38:51.899Z,14640
2022-08-08T09:39:51.893Z,14748
2022-08-08T09:40:51.896Z,14884
2022-08-08T09:41:51.872Z,15008
2022-08-08T09:42:51.859Z,15096
2022-08-08T09:43:51.861Z,15188
2022-08-08T09:44:51.840Z,15216
2022-08-08T09:45:51.941Z,14904
2022-08-08T09:46:51.835Z,15328
2022-08-08T09:47:51.836Z,15512
2022-08-08T09:48:51.789Z,15628
2022-08-08T09:49:51.799Z,15840
2022-08-08T09:50:51.792Z,16064
2022-08-08T09:51:51.773Z,16476
2022-08-08T09:52:51.751Z,16844
2022-08-08T09:53:51.747Z,17344
2022-08-08T09:54:51.736Z,18656
2022-08-08T09:55:51.721Z,23616
2022-08-08T09:56:51.723Z,29248
2022-08-08T09:57:51.709Z,33920
2022-08-08T09:58:51.688Z,38400
2022-08-08T09:59:51.696Z,43360
2022-08-08T10:00:51.678Z,49312
2022-08-08T10:01:51.664Z,56160
2022-08-08T10:02:51.654Z,60032
2022-08-08T10:03:51.759Z,61088
2022-08-08T10:04:51.631Z,60736
2022-08-08T10:05:51.688Z,59040
2022-08-08T10:06:51.607Z,60832
2022-08-08T10:07:51.599Z,61952
2022-08-08T10:08:51.590Z,62176
2022-08-08T10:09:51.576Z,62656
2022-08-08T10:10:51.584Z,60896
2022-08-08T10:11:51.568Z,61216
2022-08-08T10:12:51.548Z,60224
2022-08-08T10:13:51.545Z,60800
2022-08-08T10:14:51.541Z,63008
2022-08-08T10:15:51.525Z,64224
2022-08-08T10:16:51.515Z,65088
2022-08-08T10:17:51.575Z,65088
2022-08-08T10:18:51.482Z,64832
2022-08-08T10:19:51.479Z,66272
2022-08-08T10:20:51.466Z,65952
2022-08-08T10:21:51.466Z,63776
2022-08-08T10:22:51.444Z,62816
2022-08-08T10:23:51.431Z,63808
2022-08-08T10:24:51.431Z,64032
2022-08-08T10:25:51.423Z,63712
2022-08-08T10:26:51.415Z,63264
2022-08-08T10:27:51.390Z,62592
2022-08-08T10:28:51.392Z,63840
2022-08-08T10:29:51.394Z,63936
2022-08-08T10:30:51.364Z,63552
2022-08-08T10:31:51.354Z,64032
2022-08-08T10:32:51.372Z,64416
2022-08-08T10:33:51.335Z,65536
2022-08-08T10:34:51.336Z,66080
2022-08-08T10:35:51.316Z,44832
2022-08-08T10:36:51.304Z,19616
2022-08-08T10:37:51.296Z,16872
2022-08-08T10:38:52.296Z,16760
2022-08-08T10:39:51.301Z,16648
2022-08-08T10:40:51.324Z,16568
2022-08-08T10:41:51.263Z,16856
2022-08-08T10:42:51.283Z,16612
2022-08-08T10:43:51.239Z,17216
2022-08-08T10:44:51.275Z,16880
2022-08-08T10:45:51.226Z,16572
2022-08-08T10:46:51.220Z,16036
2022-08-08T10:47:51.199Z,15900
2022-08-08T10:48:51.200Z,15972
2022-08-08T10:49:51.209Z,16208
2022-08-08T10:50:51.167Z,16600
2022-08-08T10:51:51.175Z,21824
2022-08-08T10:52:51.149Z,53888
2022-08-08T10:53:51.133Z,72960
2022-08-08T10:54:51.126Z,72000
2022-08-08T10:55:51.122Z,69792
2022-08-08T10:56:51.126Z,72032
2022-08-08T10:57:51.108Z,74432
2022-08-08T10:58:51.089Z,68544
2022-08-08T10:59:51.121Z,70048
2022-08-08T11:00:51.065Z,70272
2022-08-08T11:01:51.072Z,66368
2022-08-08T11:02:51.059Z,26656
2022-08-08T11:03:51.040Z,52672
2022-08-08T11:04:51.041Z,69984
2022-08-08T11:05:51.017Z,72000
2022-08-08T11:06:51.012Z,73824
2022-08-08T11:07:51.003Z,71680
2022-08-08T11:08:50.984Z,70496
2022-08-08T11:09:50.972Z,71488
2022-08-08T11:10:50.965Z,72000
2022-08-08T11:11:50.965Z,73248
2022-08-08T11:12:50.971Z,75200
2022-08-08T11:13:50.934Z,75776
2022-08-08T11:14:50.977Z,75648
2022-08-08T11:15:50.910Z,75456
2022-08-08T11:16:50.941Z,75456
2022-08-08T11:17:50.888Z,77376
2022-08-08T11:18:50.880Z,78720
2022-08-08T11:19:50.877Z,77856
2022-08-08T11:20:50.867Z,76576
2022-08-08T11:21:50.862Z,74656
2022-08-08T11:22:50.843Z,73056
2022-08-08T11:23:50.839Z,73888
2022-08-08T11:24:50.914Z,75680
2022-08-08T11:25:50.825Z,75968
2022-08-08T11:26:50.801Z,74976
2022-08-08T11:27:50.800Z,72576
2022-08-08T11:28:50.794Z,70880
2022-08-08T11:29:50.781Z,72768
2022-08-08T11:30:50.772Z,72032
2022-08-08T11:31:50.764Z,71232
2022-08-08T11:32:50.761Z,72000
2022-08-08T11:33:50.746Z,72192
2022-08-08T11:34:50.729Z,73408
2022-08-08T11:35:50.726Z,75456
2022-08-08T11:36:50.753Z,71776
2022-08-08T11:37:50.702Z,73728
2022-08-08T11:38:50.689Z,75808
2022-08-08T11:39:50.680Z,74816
2022-08-08T11:40:50.671Z,74944
2022-08-08T11:41:50.670Z,75264
2022-08-08T11:42:50.653Z,78144
2022-08-08T11:43:50.642Z,77664
2022-08-08T11:44:50.641Z,77152
2022-08-08T11:45:50.622Z,75968
2022-08-08T11:46:50.613Z,76576
2022-08-08T11:47:50.600Z,77920
2022-08-08T11:48:50.591Z,78080
2022-08-08T11:49:50.584Z,77376
2022-08-08T11:50:50.568Z,79520
2022-08-08T11:51:50.566Z,80672
2022-08-08T11:52:50.548Z,79968
2022-08-08T11:53:50.542Z,78592
2022-08-08T11:54:50.537Z,77728
2022-08-08T11:55:50.537Z,77792
2022-08-08T11:56:50.521Z,74720
2022-08-08T11:57:50.512Z,76608
2022-08-08T11:58:50.494Z,81536
2022-08-08T11:59:50.482Z,81280
2022-08-08T12:00:50.505Z,81344
2022-08-08T12:01:50.475Z,82144
2022-08-08T12:02:50.458Z,81888
2022-08-08T12:03:50.452Z,80800
2022-08-08T12:04:50.434Z,77760
2022-08-08T12:05:50.444Z,75264
2022-08-08T12:06:50.435Z,72000
2022-08-08T12:07:50.405Z,72448
2022-08-08T12:08:50.406Z,72864
2022-08-08T12:09:50.394Z,75136
2022-08-08T12:10:50.395Z,75232
2022-08-08T12:11:50.377Z,75552
2022-08-08T12:12:50.360Z,76480
2022-08-08T12:13:50.343Z,78432
2022-08-08T12:14:50.361Z,79008
2022-08-08T12:15:50.327Z,79040
2022-08-08T12:16:50.313Z,78336
2022-08-08T12:17:50.344Z,77824
2022-08-08T12:18:50.298Z,77312
2022-08-08T12:19:50.283Z,50272
2022-08-08T12:20:50.273Z,18016
2022-08-08T12:21:50.277Z,16484
2022-08-08T12:22:50.257Z,16288
2022-08-08T12:23:50.249Z,16492
2022-08-08T12:24:50.245Z,16300
2022-08-08T12:25:50.226Z,15908
2022-08-08T12:26:50.213Z,15376
2022-08-08T12:27:50.204Z,15504
2022-08-08T12:28:50.197Z,15508
2022-08-08T12:29:50.230Z,15268
2022-08-08T12:30:50.217Z,15572
2022-08-08T12:31:50.165Z,15716
2022-08-08T12:32:50.158Z,15916
2022-08-08T12:33:50.148Z,15956
2022-08-08T12:34:50.139Z,16080
2022-08-08T12:35:50.129Z,15800
2022-08-08T12:36:50.119Z,15632
2022-08-08T12:37:50.145Z,15868
2022-08-08T12:38:50.113Z,23776
2022-08-08T12:39:50.139Z,56768
2022-08-08T12:40:50.080Z,77088
2022-08-08T12:41:50.073Z,77504
2022-08-08T12:42:50.067Z,75232
2022-08-08T12:43:50.057Z,74336
2022-08-08T12:44:50.050Z,77056
2022-08-08T12:45:50.104Z,74400
2022-08-08T12:46:50.029Z,71552
2022-08-08T12:47:50.036Z,74336
2022-08-08T12:48:49.997Z,75616
2022-08-08T12:49:49.988Z,71232
2022-08-08T12:50:49.993Z,71136
2022-08-08T12:51:49.970Z,75424
2022-08-08T12:52:49.957Z,72640
2022-08-08T12:53:49.953Z,83232
2022-08-08T12:54:49.939Z,72256
2022-08-08T12:55:49.930Z,69920
2022-08-08T12:56:49.928Z,78624
2022-08-08T12:57:49.919Z,80256
2022-08-08T12:58:49.959Z,79520
2022-08-08T12:59:49.891Z,79648
2022-08-08T13:00:49.882Z,77952
2022-08-08T13:01:49.879Z,74880
2022-08-08T13:02:49.868Z,74912
2022-08-08T13:03:49.850Z,70336
2022-08-08T13:04:49.895Z,67680
2022-08-08T13:05:49.836Z,68608
2022-08-08T13:06:49.828Z,69248
2022-08-08T13:07:49.810Z,64896
2022-08-08T13:08:49.812Z,38208
2022-08-08T13:09:49.791Z,12408
2022-08-08T13:10:49.787Z,10108
2022-08-08T13:11:49.791Z,14420
2022-08-08T13:12:49.760Z,13824
2022-08-08T13:13:49.755Z,12600
2022-08-08T13:14:49.744Z,12908
2022-08-08T13:15:49.813Z,12844
2022-08-08T13:16:49.732Z,12696
2022-08-08T13:17:49.753Z,12492
2022-08-08T13:18:49.711Z,12312
2022-08-08T13:19:49.690Z,12192
2022-08-08T13:20:49.698Z,12200
2022-08-08T13:21:49.701Z,12176
2022-08-08T13:22:49.667Z,12268
2022-08-08T13:23:49.669Z,12340
2022-08-08T13:24:49.637Z,12444